KSGH/SGH METAR and TAF weather

Enter ICAO airport designator
Station Type Date Time Source
KSGH METAR 2020/12/01 20:56 UTC NOAA

KSGH 012056Z AUTO 27016KT 10SM OVC017 M01/M03 A2993 RMK AO2 SLP149 T10111028 53015


Station Type Date Time Source
KSGH Decoded METAR 2020/12/01 20:56 UTC NOAA

Springfield, Springfield-Beckley Municipal Airport, OH, United States (KSGH) 39-50-25N 083-50-24W
Dec 01, 2020 - 03:56 PM EST / 2020.12.01 2056 UTC
Wind: from the W (270 degrees) at 18 MPH (16 KT):0
Visibility: 10 mile(s):0
Sky conditions: overcast
Temperature: 30.0 F (-1.1 C)
Windchill: 17 F (-8 C):1
Dew Point: 27.0 F (-2.8 C)
Relative Humidity: 88%
Pressure (altimeter): 29.93 in. Hg (1013 hPa)
Pressure tendency: 0.04 inches (1.5 hPa) higher than three hours ago
ob: KSGH 012056Z AUTO 27016KT 10SM OVC017 M01/M03 A2993 RMK AO2 SLP149 T10111028 53015
cycle: 21

Station Type Date Time Source
KSGH TAF UTC NOAA

Error!

Example: see airport list